sensor_id;sensor_type;location;lat;lon;timestamp;pressure;altitude;pressure_sealevel;temperature;humidity
71567;BME280;59403;47.456;19.120;2023-12-20T00:02:03;100482.28;;;-2.06;100.00
71567;BME280;59403;47.456;19.120;2023-12-20T00:04:30;100482.03;;;-2.01;100.00
71567;BME280;59403;47.456;19.120;2023-12-20T00:06:56;100480.13;;;-1.98;100.00
71567;BME280;59403;47.456;19.120;2023-12-20T00:09:23;100475.28;;;-2.04;100.00
71567;BME280;59403;47.456;19.120;2023-12-20T00:11:50;100469.06;;;-2.01;100.00
71567;BME280;59403;47.456;19.120;2023-12-20T00:14:18;100473.19;;;-2.14;100.00
71567;BME280;59403;47.456;19.120;2023-12-20T00:16:45;100476.72;;;-1.98;100.00
71567;BME280;59403;47.456;19.120;2023-12-20T00:19:12;100471.63;;;-2.00;100.00
71567;BME280;59403;47.456;19.120;2023-12-20T00:21:38;100468.69;;;-2.11;100.00
71567;BME280;59403;47.456;19.120;2023-12-20T00:24:06;100469.69;;;-2.13;100.00
71567;BME280;59403;47.456;19.120;2023-12-20T00:26:33;100464.81;;;-2.19;100.00
71567;BME280;59403;47.456;19.120;2023-12-20T00:28:59;100465.94;;;-2.08;100.00
71567;BME280;59403;47.456;19.120;2023-12-20T00:31:28;100455.19;;;-2.00;100.00
71567;BME280;59403;47.456;19.120;2023-12-20T00:33:55;100448.88;;;-1.95;100.00
71567;BME280;59403;47.456;19.120;2023-12-20T00:36:21;100442.22;;;-2.00;100.00
71567;BME280;59403;47.456;19.120;2023-12-20T00:38:48;100443.69;;;-1.95;100.00
71567;BME280;59403;47.456;19.120;2023-12-20T00:41:17;100431.09;;;-2.02;100.00
71567;BME280;59403;47.456;19.120;2023-12-20T00:43:44;100430.09;;;-2.00;100.00
71567;BME280;59403;47.456;19.120;2023-12-20T00:46:10;100433.59;;;-2.01;100.00
71567;BME280;59403;47.456;19.120;2023-12-20T00:48:38;100421.31;;;-1.97;100.00
71567;BME280;59403;47.456;19.120;2023-12-20T00:51:07;100422.69;;;-1.90;100.00
71567;BME280;59403;47.456;19.120;2023-12-20T00:53:34;100412.38;;;-1.92;100.00
71567;BME280;59403;47.456;19.120;2023-12-20T00:56:01;100411.84;;;-1.81;100.00
71567;BME280;59403;47.456;19.120;2023-12-20T00:58:28;100407.50;;;-1.81;100.00
71567;BME280;59403;47.456;19.120;2023-12-20T01:00:54;100397.94;;;-1.80;100.00
71567;BME280;59403;47.456;19.120;2023-12-20T01:03:21;100396.25;;;-1.81;100.00
71567;BME280;59403;47.456;19.120;2023-12-20T01:05:50;100401.12;;;-1.75;100.00
71567;BME280;59403;47.456;19.120;2023-12-20T01:08:17;100397.53;;;-1.73;100.00
71567;BME280;59403;47.456;19.120;2023-12-20T01:10:43;100397.53;;;-1.73;100.00
71567;BME280;59403;47.456;19.120;2023-12-20T01:13:12;100394.19;;;-1.75;100.00
71567;BME280;59403;47.456;19.120;2023-12-20T01:15:38;100385.66;;;-1.94;100.00
71567;BME280;59403;47.456;19.120;2023-12-20T01:18:05;100378.94;;;-1.98;100.00
71567;BME280;59403;47.456;19.120;2023-12-20T01:20:32;100381.31;;;-1.93;100.00
71567;BME280;59403;47.456;19.120;2023-12-20T01:22:59;100379.41;;;-1.90;100.00
71567;BME280;59403;47.456;19.120;2023-12-20T01:25:26;100382.53;;;-1.83;100.00
71567;BME280;59403;47.456;19.120;2023-12-20T01:27:53;100372.19;;;-2.00;100.00
71567;BME280;59403;47.456;19.120;2023-12-20T01:30:20;100372.44;;;-1.89;100.00
71567;BME280;59403;47.456;19.120;2023-12-20T01:32:46;100361.63;;;-1.97;100.00
71567;BME280;59403;47.456;19.120;2023-12-20T01:35:13;100358.50;;;-1.87;100.00
71567;BME280;59403;47.456;19.120;2023-12-20T01:37:40;100352.37;;;-1.86;100.00
71567;BME280;59403;47.456;19.120;2023-12-20T01:40:09;100357.81;;;-1.90;100.00
71567;BME280;59403;47.456;19.120;2023-12-20T01:42:36;100347.44;;;-1.90;100.00
71567;BME280;59403;47.456;19.120;2023-12-20T01:45:03;100344.75;;;-1.89;100.00
71567;BME280;59403;47.456;19.120;2023-12-20T01:47:30;100345.91;;;-1.94;100.00
71567;BME280;59403;47.456;19.120;2023-12-20T01:49:57;100339.66;;;-1.90;100.00
71567;BME280;59403;47.456;19.120;2023-12-20T01:52:25;100326.50;;;-1.87;100.00
71567;BME280;59403;47.456;19.120;2023-12-20T01:54:53;100322.50;;;-1.93;100.00
71567;BME280;59403;47.456;19.120;2023-12-20T01:57:27;100322.16;;;-1.87;100.00
71567;BME280;59403;47.456;19.120;2023-12-20T01:59:54;100319.41;;;-1.84;100.00
71567;BME280;59403;47.456;19.120;2023-12-20T02:04:57;100305.25;;;-1.78;100.00
71567;BME280;59403;47.456;19.120;2023-12-20T02:07:24;100292.00;;;-1.89;100.00
71567;BME280;59403;47.456;19.120;2023-12-20T02:09:52;100286.91;;;-1.75;100.00
71567;BME280;59403;47.456;19.120;2023-12-20T02:12:19;100286.19;;;-1.77;100.00
71567;BME280;59403;47.456;19.120;2023-12-20T02:14:48;100289.50;;;-1.91;100.00
71567;BME280;59403;47.456;19.120;2023-12-20T02:17:15;100290.38;;;-1.75;100.00
71567;BME280;59403;47.456;19.120;2023-12-20T02:19:43;100284.66;;;-1.81;100.00
71567;BME280;59403;47.456;19.120;2023-12-20T02:22:11;100283.75;;;-1.80;100.00
71567;BME280;59403;47.456;19.120;2023-12-20T02:24:38;100278.22;;;-1.90;100.00
71567;BME280;59403;47.456;19.120;2023-12-20T02:27:06;100273.34;;;-1.96;100.00
71567;BME280;59403;47.456;19.120;2023-12-20T02:29:33;100278.47;;;-1.79;100.00
71567;BME280;59403;47.456;19.120;2023-12-20T02:32:00;100266.34;;;-1.78;100.00
71567;BME280;59403;47.456;19.120;2023-12-20T02:34:27;100259.22;;;-1.75;100.00
71567;BME280;59403;47.456;19.120;2023-12-20T02:36:54;100262.66;;;-1.74;100.00
71567;BME280;59403;47.456;19.120;2023-12-20T02:39:22;100256.69;;;-1.92;100.00
71567;BME280;59403;47.456;19.120;2023-12-20T02:41:49;100257.37;;;-1.88;100.00
71567;BME280;59403;47.456;19.120;2023-12-20T02:44:16;100251.81;;;-1.98;100.00
71567;BME280;59403;47.456;19.120;2023-12-20T02:46:42;100247.00;;;-1.88;100.00
71567;BME280;59403;47.456;19.120;2023-12-20T02:49:09;100241.41;;;-1.81;100.00
71567;BME280;59403;47.456;19.120;2023-12-20T02:51:36;100237.13;;;-1.82;100.00
71567;BME280;59403;47.456;19.120;2023-12-20T02:54:04;100226.91;;;-1.85;100.00
71567;BME280;59403;47.456;19.120;2023-12-20T02:56:32;100226.41;;;-1.76;100.00
71567;BME280;59403;47.456;19.120;2023-12-20T02:58:59;100227.75;;;-1.69;100.00
71567;BME280;59403;47.456;19.120;2023-12-20T03:01:26;100219.78;;;-1.66;100.00
71567;BME280;59403;47.456;19.120;2023-12-20T03:03:52;100227.16;;;-1.74;100.00
71567;BME280;59403;47.456;19.120;2023-12-20T03:06:19;100219.78;;;-1.66;100.00
71567;BME280;59403;47.456;19.120;2023-12-20T03:08:46;100218.44;;;-1.73;100.00
71567;BME280;59403;47.456;19.120;2023-12-20T03:11:13;100214.91;;;-1.72;100.00
71567;BME280;59403;47.456;19.120;2023-12-20T03:13:41;100220.69;;;-1.67;100.00
71567;BME280;59403;47.456;19.120;2023-12-20T03:16:08;100219.03;;;-1.68;100.00
71567;BME280;59403;47.456;19.120;2023-12-20T03:18:35;100214.09;;;-1.72;100.00
71567;BME280;59403;47.456;19.120;2023-12-20T03:21:02;100214.34;;;-1.77;100.00
71567;BME280;59403;47.456;19.120;2023-12-20T03:23:29;100220.13;;;-1.72;100.00
71567;BME280;59403;47.456;19.120;2023-12-20T03:25:56;100213.00;;;-1.68;100.00
71567;BME280;59403;47.456;19.120;2023-12-20T03:28:22;100221.44;;;-1.65;100.00
71567;BME280;59403;47.456;19.120;2023-12-20T03:30:50;100209.41;;;-1.66;100.00
71567;BME280;59403;47.456;19.120;2023-12-20T03:33:17;100215.28;;;-1.62;100.00
71567;BME280;59403;47.456;19.120;2023-12-20T03:35:44;100211.91;;;-1.80;100.00
71567;BME280;59403;47.456;19.120;2023-12-20T03:38:10;100214.91;;;-1.72;100.00
71567;BME280;59403;47.456;19.120;2023-12-20T03:40:37;100221.38;;;-1.63;100.00
71567;BME280;59403;47.456;19.120;2023-12-20T03:43:04;100222.97;;;-1.76;100.00
71567;BME280;59403;47.456;19.120;2023-12-20T03:45:31;100229.41;;;-1.68;100.00
71567;BME280;59403;47.456;19.120;2023-12-20T03:47:59;100225.66;;;-1.78;100.00
71567;BME280;59403;47.456;19.120;2023-12-20T03:50:26;100222.56;;;-1.69;100.00
71567;BME280;59403;47.456;19.120;2023-12-20T03:52:53;100218.62;;;-1.76;100.00
71567;BME280;59403;47.456;19.120;2023-12-20T03:55:19;100226.56;;;-1.79;100.00
71567;BME280;59403;47.456;19.120;2023-12-20T03:57:46;100218.06;;;-1.81;100.00
71567;BME280;59403;47.456;19.120;2023-12-20T04:00:13;100217.59;;;-1.89;100.00
71567;BME280;59403;47.456;19.120;2023-12-20T04:02:41;100216.19;;;-1.79;100.00
71567;BME280;59403;47.456;19.120;2023-12-20T04:05:09;100216.75;;;-1.89;100.00
71567;BME280;59403;47.456;19.120;2023-12-20T04:07:36;100211.06;;;-1.80;100.00
71567;BME280;59403;47.456;19.120;2023-12-20T04:10:04;100207.81;;;-1.84;100.00
71567;BME280;59403;47.456;19.120;2023-12-20T04:12:31;100209.06;;;-1.75;100.00
71567;BME280;59403;47.456;19.120;2023-12-20T04:14:58;100205.38;;;-1.71;100.00
71567;BME280;59403;47.456;19.120;2023-12-20T04:17:25;100201.22;;;-1.74;100.00
71567;BME280;59403;47.456;19.120;2023-12-20T04:19:51;100193.84;;;-1.81;100.00
71567;BME280;59403;47.456;19.120;2023-12-20T04:22:19;100190.22;;;-1.94;100.00
71567;BME280;59403;47.456;19.120;2023-12-20T04:24:46;100190.59;;;-1.85;100.00
71567;BME280;59403;47.456;19.120;2023-12-20T04:27:13;100195.69;;;-1.83;100.00
71567;BME280;59403;47.456;19.120;2023-12-20T04:29:38;100198.19;;;-1.82;100.00
71567;BME280;59403;47.456;19.120;2023-12-20T04:32:05;100190.41;;;-1.82;100.00
71567;BME280;59403;47.456;19.120;2023-12-20T04:34:32;100179.53;;;-1.73;100.00
71567;BME280;59403;47.456;19.120;2023-12-20T04:36:59;100172.91;;;-1.94;100.00
71567;BME280;59403;47.456;19.120;2023-12-20T04:39:28;100166.47;;;-2.02;100.00
71567;BME280;59403;47.456;19.120;2023-12-20T04:41:55;100171.16;;;-1.93;100.00
71567;BME280;59403;47.456;19.120;2023-12-20T04:44:21;100162.53;;;-1.94;100.00
71567;BME280;59403;47.456;19.120;2023-12-20T04:46:49;100155.84;;;-1.98;100.00
71567;BME280;59403;47.456;19.120;2023-12-20T04:49:15;100160.88;;;-1.95;100.00
71567;BME280;59403;47.456;19.120;2023-12-20T04:51:42;100159.94;;;-1.94;100.00
71567;BME280;59403;47.456;19.120;2023-12-20T04:54:09;100155.16;;;-1.86;100.00
71567;BME280;59403;47.456;19.120;2023-12-20T04:56:38;100154.91;;;-1.81;100.00
71567;BME280;59403;47.456;19.120;2023-12-20T04:59:05;100150.16;;;-1.89;100.00
71567;BME280;59403;47.456;19.120;2023-12-20T05:01:32;100138.59;;;-1.83;100.00
71567;BME280;59403;47.456;19.120;2023-12-20T05:03:59;100127.12;;;-1.79;100.00
71567;BME280;59403;47.456;19.120;2023-12-20T05:06:25;100119.25;;;-1.78;100.00
71567;BME280;59403;47.456;19.120;2023-12-20T05:08:52;100122.50;;;-1.74;100.00
71567;BME280;59403;47.456;19.120;2023-12-20T05:11:19;100103.50;;;-1.75;100.00
71567;BME280;59403;47.456;19.120;2023-12-20T05:13:47;100104.53;;;-1.77;100.00
71567;BME280;59403;47.456;19.120;2023-12-20T05:16:14;100109.53;;;-1.74;100.00
71567;BME280;59403;47.456;19.120;2023-12-20T05:18:43;100104.19;;;-1.87;100.00
71567;BME280;59403;47.456;19.120;2023-12-20T05:21:10;100101.09;;;-1.78;100.00
71567;BME280;59403;47.456;19.120;2023-12-20T05:23:36;100096.91;;;-1.80;100.00
71567;BME280;59403;47.456;19.120;2023-12-20T05:26:03;100094.06;;;-1.76;100.00
71567;BME280;59403;47.456;19.120;2023-12-20T05:28:30;100096.66;;;-1.76;100.00
71567;BME280;59403;47.456;19.120;2023-12-20T05:30:58;100103.78;;;-1.79;100.00
71567;BME280;59403;47.456;19.120;2023-12-20T05:33:25;100098.50;;;-1.78;100.00
71567;BME280;59403;47.456;19.120;2023-12-20T05:35:52;100113.50;;;-1.98;100.00
71567;BME280;59403;47.456;19.120;2023-12-20T05:38:18;100102.34;;;-1.85;100.00
71567;BME280;59403;47.456;19.120;2023-12-20T05:40:45;100113.62;;;-1.86;100.00
71567;BME280;59403;47.456;19.120;2023-12-20T05:43:12;100120.00;;;-1.76;100.00
71567;BME280;59403;47.456;19.120;2023-12-20T05:45:39;100125.63;;;-1.83;100.00
71567;BME280;59403;47.456;19.120;2023-12-20T05:48:07;100130.62;;;-1.80;100.00
71567;BME280;59403;47.456;19.120;2023-12-20T05:50:33;100123.28;;;-1.72;100.00
71567;BME280;59403;47.456;19.120;2023-12-20T05:53:00;100117.91;;;-1.69;100.00
71567;BME280;59403;47.456;19.120;2023-12-20T05:55:27;100116.88;;;-1.67;100.00
71567;BME280;59403;47.456;19.120;2023-12-20T05:57:54;100112.03;;;-1.73;100.00
71567;BME280;59403;47.456;19.120;2023-12-20T06:00:20;100110.88;;;-1.67;100.00
71567;BME280;59403;47.456;19.120;2023-12-20T06:02:47;100102.31;;;-1.69;100.00
71567;BME280;59403;47.456;19.120;2023-12-20T06:05:15;100093.44;;;-1.65;100.00
71567;BME280;59403;47.456;19.120;2023-12-20T06:07:41;100078.69;;;-1.65;100.00
71567;BME280;59403;47.456;19.120;2023-12-20T06:10:09;100076.28;;;-1.68;100.00
71567;BME280;59403;47.456;19.120;2023-12-20T06:12:35;100082.31;;;-1.67;100.00
71567;BME280;59403;47.456;19.120;2023-12-20T06:15:02;100074.44;;;-1.66;100.00
71567;BME280;59403;47.456;19.120;2023-12-20T06:17:29;100083.06;;;-1.65;100.00
71567;BME280;59403;47.456;19.120;2023-12-20T06:19:56;100081.66;;;-1.71;100.00
71567;BME280;59403;47.456;19.120;2023-12-20T06:22:27;100085.00;;;-1.69;100.00
71567;BME280;59403;47.456;19.120;2023-12-20T06:24:53;100073.59;;;-1.66;100.00
71567;BME280;59403;47.456;19.120;2023-12-20T06:27:20;100070.34;;;-1.70;100.00
71567;BME280;59403;47.456;19.120;2023-12-20T06:29:47;100061.47;;;-1.66;100.00
71567;BME280;59403;47.456;19.120;2023-12-20T06:32:13;100069.16;;;-1.64;100.00
71567;BME280;59403;47.456;19.120;2023-12-20T06:34:40;100072.19;;;-1.72;100.00
71567;BME280;59403;47.456;19.120;2023-12-20T06:37:07;100068.19;;;-1.77;100.00
71567;BME280;59403;47.456;19.120;2023-12-20T06:39:35;100067.06;;;-1.73;100.00
71567;BME280;59403;47.456;19.120;2023-12-20T06:42:02;100065.81;;;-1.66;100.00
71567;BME280;59403;47.456;19.120;2023-12-20T06:44:29;100087.31;;;-1.64;100.00
71567;BME280;59403;47.456;19.120;2023-12-20T06:46:55;100086.47;;;-1.65;100.00
71567;BME280;59403;47.456;19.120;2023-12-20T06:49:22;100087.03;;;-1.60;100.00
71567;BME280;59403;47.456;19.120;2023-12-20T06:51:49;100089.72;;;-1.61;100.00
71567;BME280;59403;47.456;19.120;2023-12-20T06:54:15;100092.78;;;-1.69;100.00
71567;BME280;59403;47.456;19.120;2023-12-20T06:56:43;100124.09;;;-1.72;100.00
71567;BME280;59403;47.456;19.120;2023-12-20T06:59:10;100129.53;;;-1.76;100.00
71567;BME280;59403;47.456;19.120;2023-12-20T07:01:37;100135.31;;;-1.71;100.00
71567;BME280;59403;47.456;19.120;2023-12-20T07:04:03;100137.72;;;-1.68;100.00
71567;BME280;59403;47.456;19.120;2023-12-20T07:06:30;100135.63;;;-1.62;100.00
71567;BME280;59403;47.456;19.120;2023-12-20T07:08:56;100129.13;;;-1.69;100.00
71567;BME280;59403;47.456;19.120;2023-12-20T07:11:23;100125.41;;;-1.65;100.00
71567;BME280;59403;47.456;19.120;2023-12-20T07:13:54;100127.25;;;-1.67;100.00
71567;BME280;59403;47.456;19.120;2023-12-20T07:16:21;100130.44;;;-1.62;100.00
71567;BME280;59403;47.456;19.120;2023-12-20T07:18:48;100123.66;;;-1.64;100.00
71567;BME280;59403;47.456;19.120;2023-12-20T07:21:14;100124.31;;;-1.61;100.00
71567;BME280;59403;47.456;19.120;2023-12-20T07:23:41;100114.41;;;-1.54;100.00
71567;BME280;59403;47.456;19.120;2023-12-20T07:26:08;100113.12;;;-1.47;100.00
71567;BME280;59403;47.456;19.120;2023-12-20T07:28:34;100116.41;;;-1.44;100.00
71567;BME280;59403;47.456;19.120;2023-12-20T07:31:03;100122.34;;;-1.42;100.00
71567;BME280;59403;47.456;19.120;2023-12-20T07:33:29;100105.00;;;-1.41;100.00
71567;BME280;59403;47.456;19.120;2023-12-20T07:35:56;100119.19;;;-1.47;100.00
71567;BME280;59403;47.456;19.120;2023-12-20T07:38:23;100115.97;;;-1.36;100.00
71567;BME280;59403;47.456;19.120;2023-12-20T07:40:49;100120.88;;;-1.32;100.00
71567;BME280;59403;47.456;19.120;2023-12-20T07:43:16;100127.19;;;-1.36;100.00
71567;BME280;59403;47.456;19.120;2023-12-20T07:45:43;100132.22;;;-1.33;100.00
71567;BME280;59403;47.456;19.120;2023-12-20T07:48:11;100122.47;;;-1.29;100.00
71567;BME280;59403;47.456;19.120;2023-12-20T07:50:37;100119.03;;;-1.30;100.00
71567;BME280;59403;47.456;19.120;2023-12-20T07:53:04;100113.00;;;-1.30;100.00
71567;BME280;59403;47.456;19.120;2023-12-20T07:55:31;100100.19;;;-1.33;100.00
71567;BME280;59403;47.456;19.120;2023-12-20T07:57:57;100100.09;;;-1.32;100.00
71567;BME280;59403;47.456;19.120;2023-12-20T08:00:24;100110.91;;;-1.24;100.00
71567;BME280;59403;47.456;19.120;2023-12-20T08:02:51;100096.22;;;-1.25;100.00
71567;BME280;59403;47.456;19.120;2023-12-20T08:05:19;100086.38;;;-1.20;100.00
71567;BME280;59403;47.456;19.120;2023-12-20T08:07:45;100089.66;;;-1.16;100.00
71567;BME280;59403;47.456;19.120;2023-12-20T08:10:12;100087.78;;;-1.14;100.00
71567;BME280;59403;47.456;19.120;2023-12-20T08:12:39;100095.97;;;-1.20;100.00
71567;BME280;59403;47.456;19.120;2023-12-20T08:15:06;100092.53;;;-1.21;100.00
71567;BME280;59403;47.456;19.120;2023-12-20T08:17:32;100094.75;;;-1.15;100.00
71567;BME280;59403;47.456;19.120;2023-12-20T08:19:59;100097.19;;;-1.11;100.00
71567;BME280;59403;47.456;19.120;2023-12-20T08:22:27;100094.09;;;-1.18;100.00
71567;BME280;59403;47.456;19.120;2023-12-20T08:24:54;100083.44;;;-1.13;100.00
71567;BME280;59403;47.456;19.120;2023-12-20T08:27:21;100094.19;;;-1.05;100.00
71567;BME280;59403;47.456;19.120;2023-12-20T08:29:47;100094.94;;;-1.03;100.00
71567;BME280;59403;47.456;19.120;2023-12-20T08:32:15;100101.00;;;-1.03;100.00
71567;BME280;59403;47.456;19.120;2023-12-20T08:34:42;100102.00;;;-1.05;100.00
71567;BME280;59403;47.456;19.120;2023-12-20T08:37:08;100097.53;;;-1.18;100.00
71567;BME280;59403;47.456;19.120;2023-12-20T08:39:36;100106.34;;;-1.06;100.00
71567;BME280;59403;47.456;19.120;2023-12-20T08:42:03;100102.00;;;-1.05;100.00
71567;BME280;59403;47.456;19.120;2023-12-20T08:44:30;100098.28;;;-1.16;100.00
71567;BME280;59403;47.456;19.120;2023-12-20T08:46:57;100102.47;;;-1.13;100.00
71567;BME280;59403;47.456;19.120;2023-12-20T08:49:23;100095.91;;;-1.04;100.00
71567;BME280;59403;47.456;19.120;2023-12-20T08:51:50;100107.59;;;-0.97;100.00
71567;BME280;59403;47.456;19.120;2023-12-20T08:54:17;100108.16;;;-0.92;100.00
71567;BME280;59403;47.456;19.120;2023-12-20T08:56:46;100105.34;;;-0.89;100.00
71567;BME280;59403;47.456;19.120;2023-12-20T08:59:13;100110.00;;;-0.80;100.00
71567;BME280;59403;47.456;19.120;2023-12-20T09:01:39;100099.97;;;-0.86;100.00
71567;BME280;59403;47.456;19.120;2023-12-20T09:04:06;100105.63;;;-0.80;100.00
71567;BME280;59403;47.456;19.120;2023-12-20T09:06:33;100104.63;;;-0.77;100.00
71567;BME280;59403;47.456;19.120;2023-12-20T09:08:59;100104.41;;;-0.74;100.00
71567;BME280;59403;47.456;19.120;2023-12-20T09:11:26;100098.22;;;-0.72;100.00
71567;BME280;59403;47.456;19.120;2023-12-20T09:13:54;100103.41;;;-0.72;100.00
71567;BME280;59403;47.456;19.120;2023-12-20T09:16:22;100104.81;;;-0.66;100.00
71567;BME280;59403;47.456;19.120;2023-12-20T09:18:48;100105.91;;;-0.70;100.00
71567;BME280;59403;47.456;19.120;2023-12-20T09:21:15;100103.59;;;-0.75;100.00
71567;BME280;59403;47.456;19.120;2023-12-20T09:23:42;100095.22;;;-0.80;100.00
71567;BME280;59403;47.456;19.120;2023-12-20T09:26:09;100090.63;;;-0.75;100.00
71567;BME280;59403;47.456;19.120;2023-12-20T09:28:35;100085.13;;;-0.70;100.00
71567;BME280;59403;47.456;19.120;2023-12-20T09:31:05;100087.41;;;-0.66;100.00
71567;BME280;59403;47.456;19.120;2023-12-20T09:33:31;100097.66;;;-0.63;100.00
71567;BME280;59403;47.456;19.120;2023-12-20T09:35:58;100082.41;;;-0.55;100.00
71567;BME280;59403;47.456;19.120;2023-12-20T09:38:25;100080.25;;;-0.48;100.00
71567;BME280;59403;47.456;19.120;2023-12-20T09:40:52;100080.16;;;-0.47;100.00
71567;BME280;59403;47.456;19.120;2023-12-20T09:43:20;100070.94;;;-0.38;100.00
71567;BME280;59403;47.456;19.120;2023-12-20T09:45:52;100067.22;;;-0.34;100.00
71567;BME280;59403;47.456;19.120;2023-12-20T09:48:21;100056.47;;;-0.42;100.00
71567;BME280;59403;47.456;19.120;2023-12-20T09:50:48;100060.63;;;-0.40;100.00
71567;BME280;59403;47.456;19.120;2023-12-20T09:53:15;100040.50;;;-0.50;100.00
71567;BME280;59403;47.456;19.120;2023-12-20T09:55:42;100049.72;;;-0.59;100.00
71567;BME280;59403;47.456;19.120;2023-12-20T09:58:09;100042.47;;;-0.54;100.00
71567;BME280;59403;47.456;19.120;2023-12-20T10:00:35;100040.44;;;-0.49;100.00
71567;BME280;59403;47.456;19.120;2023-12-20T10:03:03;100037.63;;;-0.46;100.00
71567;BME280;59403;47.456;19.120;2023-12-20T10:05:34;100028.47;;;-0.65;100.00
71567;BME280;59403;47.456;19.120;2023-12-20T10:08:01;100036.41;;;-0.40;100.00
71567;BME280;59403;47.456;19.120;2023-12-20T10:10:28;100036.41;;;-0.40;100.00
71567;BME280;59403;47.456;19.120;2023-12-20T10:13:02;100028.94;;;-0.32;100.00
71567;BME280;59403;47.456;19.120;2023-12-20T10:15:30;100019.87;;;-0.39;100.00
71567;BME280;59403;47.456;19.120;2023-12-20T10:17:57;100015.56;;;-0.26;100.00
71567;BME280;59403;47.456;19.120;2023-12-20T10:20:24;100019.94;;;-0.27;100.00
71567;BME280;59403;47.456;19.120;2023-12-20T10:22:52;100017.97;;;-0.23;100.00
71567;BME280;59403;47.456;19.120;2023-12-20T10:25:19;100017.16;;;-0.11;100.00
71567;BME280;59403;47.456;19.120;2023-12-20T10:27:46;100012.88;;;-0.25;100.00
71567;BME280;59403;47.456;19.120;2023-12-20T10:30:13;100023.81;;;-0.20;100.00
71567;BME280;59403;47.456;19.120;2023-12-20T10:32:40;99999.22;;;-0.28;100.00
71567;BME280;59403;47.456;19.120;2023-12-20T10:35:08;99996.94;;;-0.20;100.00
71567;BME280;59403;47.456;19.120;2023-12-20T10:37:35;99980.22;;;-0.16;100.00
71567;BME280;59403;47.456;19.120;2023-12-20T10:40:05;99966.78;;;-0.10;100.00
71567;BME280;59403;47.456;19.120;2023-12-20T10:42:32;99976.06;;;-0.06;100.00
71567;BME280;59403;47.456;19.120;2023-12-20T10:45:00;99961.41;;;0.06;100.00
71567;BME280;59403;47.456;19.120;2023-12-20T10:47:27;99966.22;;;0.12;100.00
71567;BME280;59403;47.456;19.120;2023-12-20T10:49:54;99961.28;;;0.07;100.00
71567;BME280;59403;47.456;19.120;2023-12-20T10:52:23;99966.25;;;0.24;100.00
71567;BME280;59403;47.456;19.120;2023-12-20T10:54:50;99954.13;;;0.23;100.00
71567;BME280;59403;47.456;19.120;2023-12-20T10:57:18;99956.44;;;0.28;100.00
71567;BME280;59403;47.456;19.120;2023-12-20T10:59:45;99950.19;;;0.30;100.00
71567;BME280;59403;47.456;19.120;2023-12-20T11:02:13;99962.91;;;0.35;100.00
71567;BME280;59403;47.456;19.120;2023-12-20T11:04:47;99958.41;;;0.37;100.00
71567;BME280;59403;47.456;19.120;2023-12-20T11:07:21;99960.94;;;0.38;100.00
71567;BME280;59403;47.456;19.120;2023-12-20T11:09:56;99970.31;;;0.41;100.00
71567;BME280;59403;47.456;19.120;2023-12-20T11:12:36;99965.41;;;0.49;100.00
71567;BME280;59403;47.456;19.120;2023-12-20T11:15:06;99950.31;;;0.54;100.00
71567;BME280;59403;47.456;19.120;2023-12-20T11:17:33;99944.03;;;0.56;100.00
71567;BME280;59403;47.456;19.120;2023-12-20T11:20:09;99947.06;;;0.63;100.00
71567;BME280;59403;47.456;19.120;2023-12-20T11:22:40;99941.53;;;0.67;100.00
71567;BME280;59403;47.456;19.120;2023-12-20T11:25:17;99922.78;;;0.62;100.00
71567;BME280;59403;47.456;19.120;2023-12-20T11:28:07;99923.53;;;0.52;100.00
71567;BME280;59403;47.456;19.120;2023-12-20T11:30:42;99929.38;;;0.55;100.00
71567;BME280;59403;47.456;19.120;2023-12-20T11:33:09;99910.81;;;0.60;100.00
71567;BME280;59403;47.456;19.120;2023-12-20T11:35:36;99907.97;;;0.63;100.00
71567;BME280;59403;47.456;19.120;2023-12-20T11:38:05;99891.66;;;0.61;100.00
71567;BME280;59403;47.456;19.120;2023-12-20T11:40:34;99876.19;;;0.70;100.00
71567;BME280;59403;47.456;19.120;2023-12-20T11:43:03;99882.41;;;0.80;100.00
71567;BME280;59403;47.456;19.120;2023-12-20T11:45:30;99872.72;;;0.82;100.00
71567;BME280;59403;47.456;19.120;2023-12-20T11:47:58;99870.09;;;0.82;100.00
71567;BME280;59403;47.456;19.120;2023-12-20T11:50:25;99896.28;;;0.81;100.00
71567;BME280;59403;47.456;19.120;2023-12-20T11:52:52;99884.72;;;0.85;100.00
71567;BME280;59403;47.456;19.120;2023-12-20T11:55:20;99892.03;;;0.80;100.00
71567;BME280;59403;47.456;19.120;2023-12-20T11:57:47;99890.34;;;0.79;100.00
71567;BME280;59403;47.456;19.120;2023-12-20T12:00:16;99882.41;;;0.80;100.00
71567;BME280;59403;47.456;19.120;2023-12-20T12:02:55;99879.28;;;0.75;100.00
71567;BME280;59403;47.456;19.120;2023-12-20T12:05:21;99888.25;;;0.84;100.00
71567;BME280;59403;47.456;19.120;2023-12-20T12:07:48;99879.37;;;0.86;100.00
71567;BME280;59403;47.456;19.120;2023-12-20T12:10:18;99872.19;;;0.90;100.00
71567;BME280;59403;47.456;19.120;2023-12-20T12:12:45;99871.72;;;0.96;100.00
71567;BME280;59403;47.456;19.120;2023-12-20T12:15:11;99861.72;;;1.02;100.00
71567;BME280;59403;47.456;19.120;2023-12-20T12:17:39;99869.16;;;1.20;100.00
71567;BME280;59403;47.456;19.120;2023-12-20T12:20:07;99874.81;;;1.37;100.00
71567;BME280;59403;47.456;19.120;2023-12-20T12:22:35;99860.97;;;1.48;100.00
71567;BME280;59403;47.456;19.120;2023-12-20T12:25:09;99857.22;;;1.63;100.00
71567;BME280;59403;47.456;19.120;2023-12-20T12:27:37;99853.19;;;1.59;100.00
71567;BME280;59403;47.456;19.120;2023-12-20T12:30:06;99861.28;;;1.67;100.00
71567;BME280;59403;47.456;19.120;2023-12-20T12:32:33;99866.50;;;1.67;100.00
71567;BME280;59403;47.456;19.120;2023-12-20T12:35:03;99861.66;;;1.84;100.00
71567;BME280;59403;47.456;19.120;2023-12-20T12:37:29;99866.63;;;2.44;100.00